Time,TemperatureF,DewpointF,PressureIn,WindDirection,WindDirectionDegrees,WindSpeedMPH,WindSpeedGustMPH,Humidity,HourlyPrecipIn,Conditions,Clouds,dailyrainin,SoftwareType,DateUTC
2013-09-26 00:01:00,48.4,38.3,29.09,SSE,158,0.0,0.0,68,0.00,,---,0.00,VWS V14.01,2013-09-26 04:01:00,
2013-09-26 00:06:00,48.4,38.3,29.09,SSE,158,0.0,0.0,68,0.00,,---,0.00,VWS V14.01,2013-09-26 04:06:00,
2013-09-26 00:11:00,48.4,38.7,29.09,SSE,158,0.0,0.0,69,0.00,,---,0.00,VWS V14.01,2013-09-26 04:11:00,
2013-09-26 00:16:00,48.4,38.7,29.09,WSW,248,0.0,0.0,69,0.00,,---,0.00,VWS V14.01,2013-09-26 04:16:00,
2013-09-26 00:21:00,48.4,38.7,29.09,WSW,248,0.0,0.0,69,0.00,,---,0.00,VWS V14.01,2013-09-26 04:21:00,
2013-09-26 00:26:00,48.4,38.7,29.09,WSW,248,0.0,0.0,69,0.00,,---,0.00,VWS V14.01,2013-09-26 04:26:00,
2013-09-26 00:31:00,48.4,38.7,29.09,ESE,112,1.1,1.1,69,0.00,,---,0.00,VWS V14.01,2013-09-26 04:31:00,
2013-09-26 00:36:00,48.4,38.7,29.09,ESE,112,0.0,0.0,69,0.00,,---,0.00,VWS V14.01,2013-09-26 04:36:00,
2013-09-26 00:41:00,48.4,38.7,29.09,ESE,112,0.0,0.0,69,0.00,,---,0.00,VWS V14.01,2013-09-26 04:41:00,
2013-09-26 00:46:00,48.4,38.7,29.09,ESE,112,0.0,0.0,69,0.00,,---,0.00,VWS V14.01,2013-09-26 04:46:00,
2013-09-26 00:51:00,48.4,38.7,29.09,ESE,112,0.0,0.0,69,0.00,,---,0.00,VWS V14.01,2013-09-26 04:51:00,
2013-09-26 00:56:00,48.4,38.7,29.09,SE,135,0.0,0.0,69,0.00,,---,0.00,VWS V14.01,2013-09-26 04:56:00,
2013-09-26 01:01:00,47.8,38.2,29.09,SE,135,0.0,0.0,69,0.00,,---,0.00,VWS V14.01,2013-09-26 05:01:00,
2013-09-26 01:06:00,47.3,37.7,29.09,SE,135,0.0,0.0,69,0.00,,---,0.00,VWS V14.01,2013-09-26 05:06:00,
2013-09-26 01:11:00,46.9,37.7,29.09,SE,135,0.0,0.0,70,0.00,,---,0.00,VWS V14.01,2013-09-26 05:11:00,
2013-09-26 01:16:00,46.6,37.3,29.09,SE,135,0.0,0.0,70,0.00,,---,0.00,VWS V14.01,2013-09-26 05:16:00,
2013-09-26 01:21:00,46.2,37.0,29.09,SE,135,0.0,0.0,70,0.00,,---,0.00,VWS V14.01,2013-09-26 05:21:00,
2013-09-26 01:26:00,46.0,37.2,29.09,SE,135,0.0,0.0,71,0.00,,---,0.00,VWS V14.01,2013-09-26 05:26:00,
2013-09-26 01:31:00,45.5,36.3,29.09,SE,135,0.0,0.0,70,0.00,,---,0.00,VWS V14.01,2013-09-26 05:31:00,
2013-09-26 01:36:00,45.3,36.1,29.09,SE,135,0.0,0.0,70,0.00,,---,0.00,VWS V14.01,2013-09-26 05:36:00,
2013-09-26 01:41:00,45.1,36.0,29.09,SE,135,0.0,0.0,70,0.00,,---,0.00,VWS V14.01,2013-09-26 05:41:00,
2013-09-26 01:46:00,45.0,35.8,29.09,SE,135,0.0,0.0,70,0.00,,---,0.00,VWS V14.01,2013-09-26 05:46:00,
2013-09-26 01:51:00,44.8,35.2,29.09,SE,135,0.0,0.0,69,0.00,,---,0.00,VWS V14.01,2013-09-26 05:51:00,
2013-09-26 01:56:00,44.8,35.2,29.09,SE,135,0.0,0.0,69,0.00,,---,0.00,VWS V14.01,2013-09-26 05:56:00,
2013-09-26 02:01:00,45.0,35.8,29.12,SE,135,0.0,0.0,70,0.00,,---,0.00,VWS V14.01,2013-09-26 06:01:00,
2013-09-26 02:06:00,45.1,36.0,29.12,SE,135,0.0,0.0,70,0.00,,---,0.00,VWS V14.01,2013-09-26 06:06:00,
2013-09-26 02:11:00,45.1,36.0,29.12,SE,135,0.0,0.0,70,0.00,,---,0.00,VWS V14.01,2013-09-26 06:11:00,
2013-09-26 02:16:00,45.1,36.0,29.12,SE,135,0.0,0.0,70,0.00,,---,0.00,VWS V14.01,2013-09-26 06:16:00,
2013-09-26 02:20:00,45.1,36.0,29.12,SE,135,0.0,0.0,70,0.00,,---,0.00,VWS V14.01,2013-09-26 06:20:00,
2013-09-26 02:25:00,44.8,35.6,29.12,SE,135,0.0,0.0,70,0.00,,---,0.00,VWS V14.01,2013-09-26 06:25:00,
2013-09-26 02:30:00,44.4,35.6,29.12,SE,135,0.0,0.0,71,0.00,,---,0.00,VWS V14.01,2013-09-26 06:30:00,
2013-09-26 02:35:00,44.4,36.0,29.12,SE,135,0.0,0.0,72,0.00,,---,0.00,VWS V14.01,2013-09-26 06:35:00,
2013-09-26 02:40:00,44.4,36.0,29.12,SE,135,0.0,0.0,72,0.00,,---,0.00,VWS V14.01,2013-09-26 06:40:00,
2013-09-26 02:45:00,44.2,35.8,29.12,SE,135,0.0,0.0,72,0.00,,---,0.00,VWS V14.01,2013-09-26 06:45:00,
2013-09-26 02:50:00,44.2,35.8,29.12,SE,135,0.0,0.0,72,0.00,,---,0.00,VWS V14.01,2013-09-26 06:50:00,
2013-09-26 02:55:00,44.2,35.8,29.12,SE,135,1.1,1.1,72,0.00,,---,0.00,VWS V14.01,2013-09-26 06:55:00,
2013-09-26 03:00:00,44.1,35.3,29.12,SE,135,0.0,0.0,71,0.00,,---,0.00,VWS V14.01,2013-09-26 07:00:00,
2013-09-26 03:05:00,43.9,35.1,29.12,SE,135,0.0,0.0,71,0.00,,---,0.00,VWS V14.01,2013-09-26 07:05:00,
2013-09-26 03:10:00,43.9,35.5,29.12,SE,135,0.0,0.0,72,0.00,,---,0.00,VWS V14.01,2013-09-26 07:10:00,
2013-09-26 03:15:00,43.7,35.3,29.12,SE,135,0.0,0.0,72,0.00,,---,0.00,VWS V14.01,2013-09-26 07:15:00,
2013-09-26 03:20:00,43.7,34.9,29.12,SE,135,1.3,1.6,71,0.00,,---,0.00,VWS V14.01,2013-09-26 07:20:00,
2013-09-26 03:25:00,43.3,34.6,29.12,SE,135,0.0,0.0,71,0.00,,---,0.00,VWS V14.01,2013-09-26 07:25:00,
2013-09-26 03:30:00,43.2,34.4,29.12,SE,135,0.0,0.0,71,0.00,,---,0.00,VWS V14.01,2013-09-26 07:30:00,
2013-09-26 03:35:00,43.3,34.6,29.12,SE,135,0.0,0.0,71,0.00,,---,0.00,VWS V14.01,2013-09-26 07:35:00,
2013-09-26 03:40:00,43.5,35.1,29.12,SE,135,0.0,0.0,72,0.00,,---,0.00,VWS V14.01,2013-09-26 07:40:00,
2013-09-26 03:45:00,43.5,35.1,29.12,SE,135,0.0,0.0,72,0.00,,---,0.00,VWS V14.01,2013-09-26 07:45:00,
2013-09-26 03:50:00,43.7,35.3,29.12,SE,135,0.0,0.0,72,0.00,,---,0.00,VWS V14.01,2013-09-26 07:50:00,
2013-09-26 03:55:00,43.7,35.3,29.12,SE,135,0.0,0.0,72,0.00,,---,0.00,VWS V14.01,2013-09-26 07:55:00,
2013-09-26 04:00:00,43.9,35.5,29.12,SE,135,0.0,0.0,72,0.00,,---,0.00,VWS V14.01,2013-09-26 08:00:00,
2013-09-26 04:05:00,43.9,35.8,29.12,SE,135,0.0,0.0,73,0.00,,---,0.00,VWS V14.01,2013-09-26 08:05:00,
2013-09-26 04:10:00,43.9,35.8,29.12,SE,135,0.0,0.0,73,0.00,,---,0.00,VWS V14.01,2013-09-26 08:10:00,
2013-09-26 04:15:00,43.7,35.6,29.12,SE,135,0.0,0.0,73,0.00,,---,0.00,VWS V14.01,2013-09-26 08:15:00,
2013-09-26 04:20:00,43.7,35.6,29.14,SE,135,0.0,0.0,73,0.00,,---,0.00,VWS V14.01,2013-09-26 08:20:00,
2013-09-26 04:25:00,43.7,35.3,29.14,SE,135,0.0,0.0,72,0.00,,---,0.00,VWS V14.01,2013-09-26 08:25:00,
2013-09-26 04:30:00,43.7,35.3,29.14,SE,135,0.0,0.0,72,0.00,,---,0.00,VWS V14.01,2013-09-26 08:30:00,
2013-09-26 04:35:00,43.5,35.5,29.14,SE,135,0.0,0.0,73,0.00,,---,0.00,VWS V14.01,2013-09-26 08:35:00,
2013-09-26 04:40:00,43.5,35.1,29.14,SE,135,0.0,0.0,72,0.00,,---,0.00,VWS V14.01,2013-09-26 08:40:00,
2013-09-26 04:45:00,43.5,35.1,29.14,SE,135,0.0,0.0,72,0.00,,---,0.00,VWS V14.01,2013-09-26 08:45:00,
2013-09-26 04:50:00,43.3,34.9,29.14,SE,135,0.0,0.0,72,0.00,,---,0.00,VWS V14.01,2013-09-26 08:50:00,
2013-09-26 04:55:00,43.3,34.9,29.14,SE,135,0.0,0.0,72,0.00,,---,0.00,VWS V14.01,2013-09-26 08:55:00,
2013-09-26 05:00:00,43.3,34.9,29.14,SE,135,0.0,0.0,72,0.00,,---,0.00,VWS V14.01,2013-09-26 09:00:00,
2013-09-26 05:05:00,43.2,34.8,29.14,SE,135,0.0,0.0,72,0.00,,---,0.00,VWS V14.01,2013-09-26 09:05:00,
2013-09-26 05:10:00,43.0,34.6,29.14,SE,135,0.0,0.0,72,0.00,,---,0.00,VWS V14.01,2013-09-26 09:10:00,
2013-09-26 05:15:00,43.0,34.6,29.14,SE,135,0.0,1.1,72,0.00,,---,0.00,VWS V14.01,2013-09-26 09:15:00,
2013-09-26 05:20:00,42.8,34.4,29.14,SE,135,0.0,0.0,72,0.00,,---,0.00,VWS V14.01,2013-09-26 09:20:00,
2013-09-26 05:25:00,42.8,34.4,29.14,SE,135,0.0,0.0,72,0.00,,---,0.00,VWS V14.01,2013-09-26 09:25:00,
2013-09-26 05:30:00,42.8,34.4,29.14,SE,135,0.0,0.0,72,0.00,,---,0.00,VWS V14.01,2013-09-26 09:30:00,
2013-09-26 05:35:00,43.0,34.6,29.14,SE,135,0.0,0.0,72,0.00,,---,0.00,VWS V14.01,2013-09-26 09:35:00,
2013-09-26 05:40:00,43.0,34.9,29.14,SE,135,0.0,0.0,73,0.00,,---,0.00,VWS V14.01,2013-09-26 09:40:00,
2013-09-26 05:45:00,43.0,34.9,29.14,SE,135,0.0,0.0,73,0.00,,---,0.00,VWS V14.01,2013-09-26 09:45:00,
2013-09-26 05:50:00,43.0,34.9,29.14,SE,135,0.0,0.0,73,0.00,,---,0.00,VWS V14.01,2013-09-26 09:50:00,
2013-09-26 05:55:00,42.8,34.8,29.14,SE,135,0.0,0.0,73,0.00,,---,0.00,VWS V14.01,2013-09-26 09:55:00,
2013-09-26 06:00:00,43.0,34.9,29.14,SE,135,0.0,0.0,73,0.00,,---,0.00,VWS V14.01,2013-09-26 10:00:00,
2013-09-26 06:05:00,42.8,34.8,29.14,SE,135,0.0,0.0,73,0.00,,---,0.00,VWS V14.01,2013-09-26 10:05:00,
2013-09-26 06:10:00,42.8,34.8,29.14,SE,135,0.0,0.0,73,0.00,,---,0.00,VWS V14.01,2013-09-26 10:10:00,
2013-09-26 06:15:00,42.8,34.8,29.14,SE,135,0.0,0.0,73,0.00,,---,0.00,VWS V14.01,2013-09-26 10:15:00,
2013-09-26 06:20:00,42.8,34.8,29.14,SE,135,0.0,0.0,73,0.00,,---,0.00,VWS V14.01,2013-09-26 10:20:00,
2013-09-26 06:25:00,42.8,34.8,29.14,SE,135,0.0,0.0,73,0.00,,---,0.00,VWS V14.01,2013-09-26 10:25:00,
2013-09-26 06:30:00,42.8,35.1,29.14,SE,135,0.0,0.0,74,0.00,,---,0.00,VWS V14.01,2013-09-26 10:30:00,
2013-09-26 06:35:00,42.8,35.1,29.14,SE,135,0.0,0.0,74,0.00,,---,0.00,VWS V14.01,2013-09-26 10:35:00,
2013-09-26 06:40:00,42.6,34.9,29.14,SE,135,0.0,0.0,74,0.00,,---,0.00,VWS V14.01,2013-09-26 10:40:00,
2013-09-26 06:45:00,42.8,35.1,29.14,SE,135,0.0,0.0,74,0.00,,---,0.00,VWS V14.01,2013-09-26 10:45:00,
2013-09-26 06:50:00,42.8,35.1,29.14,SE,135,0.0,0.0,74,0.00,,---,0.00,VWS V14.01,2013-09-26 10:50:00,
2013-09-26 06:55:00,42.8,35.1,29.14,SE,135,0.0,0.0,74,0.00,,---,0.00,VWS V14.01,2013-09-26 10:55:00,
2013-09-26 07:00:00,42.8,35.1,29.14,SE,135,0.0,0.0,74,0.00,,---,0.00,VWS V14.01,2013-09-26 11:00:00,
2013-09-26 07:05:00,42.8,35.1,29.14,SE,135,0.0,0.0,74,0.00,,---,0.00,VWS V14.01,2013-09-26 11:05:00,
2013-09-26 07:10:00,43.0,35.3,29.14,SE,135,0.0,0.0,74,0.00,,---,0.00,VWS V14.01,2013-09-26 11:10:00,
2013-09-26 07:15:00,42.8,35.1,29.14,SE,135,1.6,1.6,74,0.00,,---,0.00,VWS V14.01,2013-09-26 11:15:00,
2013-09-26 07:20:00,42.8,35.1,29.14,SE,135,0.0,0.0,74,0.00,,---,0.00,VWS V14.01,2013-09-26 11:20:00,
2013-09-26 07:25:00,43.0,35.3,29.14,SE,135,0.0,0.0,74,0.00,,---,0.00,VWS V14.01,2013-09-26 11:25:00,
2013-09-26 07:30:00,43.2,35.5,29.14,SE,135,0.0,0.0,74,0.00,,---,0.00,VWS V14.01,2013-09-26 11:30:00,
2013-09-26 07:35:00,43.2,35.5,29.17,SE,135,0.0,0.0,74,0.00,,---,0.00,VWS V14.01,2013-09-26 11:35:00,
2013-09-26 07:40:00,43.3,35.6,29.17,SE,135,0.0,0.0,74,0.00,,---,0.00,VWS V14.01,2013-09-26 11:40:00,
2013-09-26 07:45:00,43.3,35.6,29.17,SE,135,0.0,0.0,74,0.00,,---,0.00,VWS V14.01,2013-09-26 11:45:00,
2013-09-26 07:50:00,43.5,35.8,29.17,SE,135,0.0,0.0,74,0.00,,---,0.00,VWS V14.01,2013-09-26 11:50:00,
2013-09-26 07:55:00,43.7,36.0,29.17,SE,135,0.9,0.9,74,0.00,,---,0.00,VWS V14.01,2013-09-26 11:55:00,
2013-09-26 08:00:00,44.1,36.3,29.17,SE,135,0.0,0.0,74,0.00,,---,0.00,VWS V14.01,2013-09-26 12:00:00,
2013-09-26 08:05:00,44.1,36.3,29.17,SE,135,0.0,0.0,74,0.00,,---,0.00,VWS V14.01,2013-09-26 12:05:00,
2013-09-26 08:10:00,44.2,36.5,29.17,SE,135,0.0,0.0,74,0.00,,---,0.00,VWS V14.01,2013-09-26 12:10:00,
2013-09-26 08:15:00,44.2,36.5,29.17,SE,135,0.0,0.0,74,0.00,,---,0.00,VWS V14.01,2013-09-26 12:15:00,
2013-09-26 08:20:00,44.6,36.5,29.17,SE,135,0.0,0.0,73,0.00,,---,0.00,VWS V14.01,2013-09-26 12:20:00,
2013-09-26 08:25:00,44.8,36.7,29.17,SE,135,0.0,0.0,73,0.00,,---,0.00,VWS V14.01,2013-09-26 12:25:00,
2013-09-26 08:30:00,45.0,36.8,29.17,SE,135,0.0,0.0,73,0.00,,---,0.00,VWS V14.01,2013-09-26 12:30:00,
2013-09-26 08:35:00,45.1,37.0,29.17,SE,135,0.0,0.0,73,0.00,,---,0.00,VWS V14.01,2013-09-26 12:35:00,
2013-09-26 08:40:00,45.3,37.2,29.17,SE,135,0.0,0.0,73,0.00,,---,0.00,VWS V14.01,2013-09-26 12:40:00,
2013-09-26 08:45:00,45.3,37.2,29.17,SE,135,0.0,0.0,73,0.00,,---,0.00,VWS V14.01,2013-09-26 12:45:00,
2013-09-26 08:50:00,45.7,37.5,29.17,SE,135,0.0,0.0,73,0.00,,---,0.00,VWS V14.01,2013-09-26 12:50:00,
2013-09-26 08:54:00,46.0,37.9,29.17,SE,135,0.0,0.0,73,0.00,,---,0.00,VWS V14.01,2013-09-26 12:54:00,
2013-09-26 08:59:00,46.2,38.1,29.17,SE,135,0.0,0.0,73,0.00,,---,0.00,VWS V14.01,2013-09-26 12:59:00,
2013-09-26 09:04:00,46.9,38.8,29.17,WNW,292,1.6,1.6,73,0.00,,---,0.00,VWS V14.01,2013-09-26 13:04:00,
2013-09-26 09:09:00,47.1,38.9,29.17,WNW,292,1.6,1.6,73,0.00,,---,0.00,VWS V14.01,2013-09-26 13:09:00,
2013-09-26 09:14:00,47.7,39.1,29.17,West,270,0.0,0.0,72,0.00,,---,0.00,VWS V14.01,2013-09-26 13:14:00,
2013-09-26 09:19:00,48.7,40.1,29.17,West,270,1.6,1.6,72,0.00,,---,0.00,VWS V14.01,2013-09-26 13:19:00,
2013-09-26 09:24:00,49.3,40.3,29.17,West,270,0.9,1.6,71,0.00,,---,0.00,VWS V14.01,2013-09-26 13:24:00,
2013-09-26 09:29:00,49.8,40.8,29.17,West,270,0.0,0.0,71,0.00,,---,0.00,VWS V14.01,2013-09-26 13:29:00,
2013-09-26 09:34:00,50.4,41.0,29.17,West,270,0.9,0.9,70,0.00,,---,0.00,VWS V14.01,2013-09-26 13:34:00,
2013-09-26 09:39:00,50.7,40.9,29.17,NW,315,2.0,2.0,69,0.00,,---,0.00,VWS V14.01,2013-09-26 13:39:00,
2013-09-26 09:44:00,52.2,41.5,29.17,NW,315,0.0,0.0,67,0.00,,---,0.00,VWS V14.01,2013-09-26 13:44:00,
2013-09-26 09:49:00,55.4,44.6,29.17,WSW,248,0.9,1.6,67,0.00,,---,0.00,VWS V14.01,2013-09-26 13:49:00,
2013-09-26 09:54:00,57.7,46.5,29.17,WSW,248,1.3,1.3,66,0.00,,---,0.00,VWS V14.01,2013-09-26 13:54:00,
2013-09-26 09:59:00,57.4,45.3,29.17,WSW,248,1.3,1.3,64,0.00,,---,0.00,VWS V14.01,2013-09-26 13:59:00,
2013-09-26 10:04:00,57.0,44.6,29.20,WSW,248,2.2,2.2,63,0.00,,---,0.00,VWS V14.01,2013-09-26 14:04:00,
2013-09-26 10:09:00,57.9,45.0,29.20,WSW,248,2.5,2.5,62,0.00,,---,0.00,VWS V14.01,2013-09-26 14:09:00,
2013-09-26 10:14:00,60.1,45.3,29.20,WNW,292,1.3,2.9,58,0.00,,---,0.00,VWS V14.01,2013-09-26 14:14:00,
2013-09-26 10:19:00,61.3,45.5,29.20,West,270,2.5,2.5,56,0.00,,---,0.00,VWS V14.01,2013-09-26 14:19:00,
2013-09-26 10:24:00,58.5,42.8,29.20,West,270,3.8,3.8,56,0.00,,---,0.00,VWS V14.01,2013-09-26 14:24:00,
2013-09-26 10:29:00,58.6,42.1,29.20,South,180,2.5,2.5,54,0.00,,---,0.00,VWS V14.01,2013-09-26 14:29:00,
2013-09-26 10:34:00,58.8,41.7,29.20,SE,135,1.6,2.0,53,0.00,,---,0.00,VWS V14.01,2013-09-26 14:34:00,
2013-09-26 10:39:00,59.2,41.1,29.20,South,180,2.7,6.3,51,0.00,,---,0.00,VWS V14.01,2013-09-26 14:39:00,
2013-09-26 10:44:00,58.8,40.2,29.20,South,180,2.2,2.5,50,0.00,,---,0.00,VWS V14.01,2013-09-26 14:44:00,
2013-09-26 10:49:00,59.5,40.9,29.20,SSW,202,1.6,1.6,50,0.00,,---,0.00,VWS V14.01,2013-09-26 14:49:00,
2013-09-26 10:54:00,59.7,41.1,29.20,SSE,158,1.1,2.0,50,0.00,,---,0.00,VWS V14.01,2013-09-26 14:54:00,
2013-09-26 10:59:00,59.9,41.2,29.20,NNW,338,0.0,1.6,50,0.00,,---,0.00,VWS V14.01,2013-09-26 14:59:00,
2013-09-26 11:04:00,60.8,40.5,29.20,NNW,338,2.7,2.7,47,0.00,,---,0.00,VWS V14.01,2013-09-26 15:04:00,
2013-09-26 11:09:00,61.0,41.2,29.20,South,180,0.9,2.0,48,0.00,,---,0.00,VWS V14.01,2013-09-26 15:09:00,
2013-09-26 11:14:00,59.9,40.2,29.20,SSW,202,4.0,4.0,48,0.00,,---,0.00,VWS V14.01,2013-09-26 15:14:00,
2013-09-26 11:19:00,59.7,38.9,29.17,SSW,202,3.1,3.1,46,0.00,,---,0.00,VWS V14.01,2013-09-26 15:19:00,
2013-09-26 11:24:00,59.7,39.5,29.17,SSW,202,2.7,2.7,47,0.00,,---,0.00,VWS V14.01,2013-09-26 15:24:00,
2013-09-26 11:29:00,59.9,39.6,29.17,NW,315,2.5,2.5,47,0.00,,---,0.00,VWS V14.01,2013-09-26 15:29:00,
2013-09-26 11:34:00,60.4,40.1,29.20,WSW,248,0.0,1.6,47,0.00,,---,0.00,VWS V14.01,2013-09-26 15:34:00,
2013-09-26 11:39:00,60.4,40.7,29.20,SSW,202,1.3,2.0,48,0.00,,---,0.00,VWS V14.01,2013-09-26 15:39:00,
2013-09-26 11:44:00,59.7,38.9,29.20,South,180,1.6,3.1,46,0.00,,---,0.00,VWS V14.01,2013-09-26 15:44:00,
2013-09-26 11:49:00,59.7,38.9,29.17,South,180,2.2,2.5,46,0.00,,---,0.00,VWS V14.01,2013-09-26 15:49:00,
2013-09-26 11:54:00,63.5,41.8,29.17,SSW,202,2.5,2.5,45,0.00,,---,0.00,VWS V14.01,2013-09-26 15:54:00,
2013-09-26 11:59:00,61.9,40.3,29.17,ESE,112,2.5,2.5,45,0.00,,---,0.00,VWS V14.01,2013-09-26 15:59:00,
2013-09-26 12:04:00,61.0,39.5,29.20,ESE,112,1.1,2.9,45,0.00,,---,0.00,VWS V14.01,2013-09-26 16:04:00,
2013-09-26 12:09:00,61.2,39.7,29.20,SE,135,2.5,2.5,45,0.00,,---,0.00,VWS V14.01,2013-09-26 16:09:00,
2013-09-26 12:14:00,60.4,39.0,29.20,SSW,202,2.9,2.9,45,0.00,,---,0.00,VWS V14.01,2013-09-26 16:14:00,
2013-09-26 12:19:00,59.7,38.9,29.20,SSW,202,2.7,2.9,46,0.00,,---,0.00,VWS V14.01,2013-09-26 16:19:00,
2013-09-26 12:24:00,60.1,39.2,29.20,SSW,202,1.3,1.3,46,0.00,,---,0.00,VWS V14.01,2013-09-26 16:24:00,
2013-09-26 12:29:00,59.9,38.5,29.20,SSE,158,1.1,2.0,45,0.00,,---,0.00,VWS V14.01,2013-09-26 16:29:00,
2013-09-26 12:34:00,60.4,39.0,29.20,SE,135,2.2,2.7,45,0.00,,---,0.00,VWS V14.01,2013-09-26 16:34:00,
2013-09-26 12:39:00,61.2,39.7,29.20,WNW,292,2.2,2.2,45,0.00,,---,0.00,VWS V14.01,2013-09-26 16:39:00,
2013-09-26 12:44:00,60.6,39.2,29.20,SSE,158,0.9,2.0,45,0.00,,---,0.00,VWS V14.01,2013-09-26 16:44:00,
2013-09-26 12:49:00,60.8,38.8,29.20,South,180,1.3,1.3,44,0.00,,---,0.00,VWS V14.01,2013-09-26 16:49:00,
2013-09-26 12:54:00,61.0,39.5,29.20,SW,225,1.6,1.6,45,0.00,,---,0.00,VWS V14.01,2013-09-26 16:54:00,
2013-09-26 12:59:00,61.0,38.9,29.20,South,180,2.7,2.7,44,0.00,,---,0.00,VWS V14.01,2013-09-26 16:59:00,
2013-09-26 13:04:00,61.0,38.3,29.20,South,180,2.0,2.0,43,0.00,,---,0.00,VWS V14.01,2013-09-26 17:04:00,
2013-09-26 13:09:00,60.6,38.6,29.20,South,180,1.6,2.7,44,0.00,,---,0.00,VWS V14.01,2013-09-26 17:09:00,
2013-09-26 13:14:00,60.4,38.4,29.20,East,90,2.5,2.5,44,0.00,,---,0.00,VWS V14.01,2013-09-26 17:14:00,
2013-09-26 13:19:00,61.2,38.5,29.17,SE,135,2.7,2.7,43,0.00,,---,0.00,VWS V14.01,2013-09-26 17:19:00,
2013-09-26 13:24:00,61.3,39.3,29.17,SSW,202,2.5,2.5,44,0.00,,---,0.00,VWS V14.01,2013-09-26 17:24:00,
2013-09-26 13:29:00,61.7,39.6,29.17,SSE,158,2.5,2.5,44,0.00,,---,0.00,VWS V14.01,2013-09-26 17:29:00,
2013-09-26 13:34:00,61.3,38.1,29.17,SSE,158,2.9,2.9,42,0.00,,---,0.00,VWS V14.01,2013-09-26 17:34:00,
2013-09-26 13:39:00,61.5,38.8,29.17,SSE,158,1.6,1.6,43,0.00,,---,0.00,VWS V14.01,2013-09-26 17:39:00,
2013-09-26 13:44:00,62.4,39.0,29.17,SSW,202,1.3,1.3,42,0.00,,---,0.00,VWS V14.01,2013-09-26 17:44:00,
2013-09-26 13:49:00,62.1,39.3,29.20,SSW,202,1.6,1.6,43,0.00,,---,0.00,VWS V14.01,2013-09-26 17:49:00,
2013-09-26 13:54:00,62.1,38.7,29.20,ENE,68,3.1,3.1,42,0.00,,---,0.00,VWS V14.01,2013-09-26 17:54:00,
2013-09-26 13:59:00,62.2,39.5,29.20,SW,225,2.2,2.9,43,0.00,,---,0.00,VWS V14.01,2013-09-26 17:59:00,
2013-09-26 14:04:00,63.3,39.9,29.17,South,180,2.0,2.0,42,0.00,,---,0.00,VWS V14.01,2013-09-26 18:04:00,
2013-09-26 14:09:00,63.0,38.3,29.17,WSW,248,2.0,2.0,40,0.00,,---,0.00,VWS V14.01,2013-09-26 18:09:00,
2013-09-26 14:14:00,62.2,38.9,29.17,SE,135,3.6,3.6,42,0.00,,---,0.00,VWS V14.01,2013-09-26 18:14:00,
2013-09-26 14:19:00,61.9,38.0,29.17,SSE,158,2.7,2.7,41,0.00,,---,0.00,VWS V14.01,2013-09-26 18:19:00,
2013-09-26 14:24:00,61.5,37.6,29.17,SSE,158,2.9,2.9,41,0.00,,---,0.00,VWS V14.01,2013-09-26 18:24:00,
2013-09-26 14:29:00,61.0,37.8,29.17,SSW,202,2.5,3.4,42,0.00,,---,0.00,VWS V14.01,2013-09-26 18:29:00,
2013-09-26 14:34:00,60.8,38.2,29.20,SE,135,1.1,1.1,43,0.00,,---,0.00,VWS V14.01,2013-09-26 18:34:00,
2013-09-26 14:39:00,61.0,38.9,29.20,SSE,158,3.4,3.4,44,0.00,,---,0.00,VWS V14.01,2013-09-26 18:39:00,
2013-09-26 14:44:00,61.0,38.9,29.20,NW,315,0.0,0.0,44,0.00,,---,0.00,VWS V14.01,2013-09-26 18:44:00,
2013-09-26 14:49:00,61.0,38.3,29.17,SSE,158,2.2,2.2,43,0.00,,---,0.00,VWS V14.01,2013-09-26 18:49:00,
2013-09-26 14:54:00,61.0,37.8,29.17,ESE,112,2.7,2.7,42,0.00,,---,0.00,VWS V14.01,2013-09-26 18:54:00,
2013-09-26 14:59:00,61.2,37.9,29.17,SSE,158,1.3,1.3,42,0.00,,---,0.00,VWS V14.01,2013-09-26 18:59:00,
2013-09-26 15:04:00,61.0,37.1,29.20,NE,45,2.0,2.9,41,0.00,,---,0.00,VWS V14.01,2013-09-26 19:04:00,
2013-09-26 15:09:00,61.5,38.8,29.20,SSW,202,1.3,2.9,43,0.00,,---,0.00,VWS V14.01,2013-09-26 19:09:00,
2013-09-26 15:14:00,61.7,39.0,29.20,SSE,158,2.0,2.0,43,0.00,,---,0.00,VWS V14.01,2013-09-26 19:14:00,
2013-09-26 15:19:00,61.3,37.5,29.17,SSW,202,1.1,2.0,41,0.00,,---,0.00,VWS V14.01,2013-09-26 19:19:00,
2013-09-26 15:24:00,61.2,38.5,29.17,WSW,248,0.0,0.0,43,0.00,,---,0.00,VWS V14.01,2013-09-26 19:24:00,
2013-09-26 15:29:00,61.9,39.8,29.17,SW,225,1.1,1.1,44,0.00,,---,0.00,VWS V14.01,2013-09-26 19:29:00,
2013-09-26 15:34:00,61.3,38.7,29.17,SE,135,3.4,3.4,43,0.00,,---,0.00,VWS V14.01,2013-09-26 19:34:00,
2013-09-26 15:39:00,61.0,38.9,29.17,WSW,248,1.3,1.3,44,0.00,,---,0.00,VWS V14.01,2013-09-26 19:39:00,
2013-09-26 15:44:00,60.6,38.6,29.17,ENE,68,0.0,0.0,44,0.00,,---,0.00,VWS V14.01,2013-09-26 19:44:00,
2013-09-26 15:49:00,60.1,38.1,29.17,ENE,68,1.1,1.1,44,0.00,,---,0.00,VWS V14.01,2013-09-26 19:49:00,
2013-09-26 15:54:00,59.9,38.0,29.17,SSW,202,1.3,1.3,44,0.00,,---,0.00,VWS V14.01,2013-09-26 19:54:00,
2013-09-26 15:59:00,59.9,38.5,29.17,SE,135,1.3,1.3,45,0.00,,---,0.00,VWS V14.01,2013-09-26 19:59:00,
2013-09-26 16:04:00,59.7,38.4,29.20,SSE,158,2.7,2.7,45,0.00,,---,0.00,VWS V14.01,2013-09-26 20:04:00,
2013-09-26 16:09:00,59.7,38.4,29.20,ESE,112,0.0,0.0,45,0.00,,---,0.00,VWS V14.01,2013-09-26 20:09:00,
2013-09-26 16:14:00,59.5,38.2,29.20,South,180,0.0,2.2,45,0.00,,---,0.00,VWS V14.01,2013-09-26 20:14:00,
2013-09-26 16:19:00,59.4,38.6,29.20,South,180,0.0,0.0,46,0.00,,---,0.00,VWS V14.01,2013-09-26 20:19:00,
2013-09-26 16:23:00,59.4,38.6,29.20,SW,225,0.0,0.0,46,0.00,,---,0.00,VWS V14.01,2013-09-26 20:23:00,
2013-09-26 16:28:00,59.2,38.4,29.20,SE,135,1.6,1.6,46,0.00,,---,0.00,VWS V14.01,2013-09-26 20:28:00,
2013-09-26 16:33:00,58.6,37.9,29.20,SW,225,0.0,1.3,46,0.00,,---,0.00,VWS V14.01,2013-09-26 20:33:00,
2013-09-26 16:38:00,58.5,37.8,29.20,SW,225,1.1,1.3,46,0.00,,---,0.00,VWS V14.01,2013-09-26 20:38:00,
2013-09-26 16:43:00,58.1,38.5,29.20,South,180,1.6,1.6,48,0.00,,---,0.00,VWS V14.01,2013-09-26 20:43:00,
2013-09-26 16:48:00,58.1,38.0,29.20,South,180,0.0,0.0,47,0.00,,---,0.00,VWS V14.01,2013-09-26 20:48:00,
2013-09-26 16:53:00,57.9,38.4,29.20,South,180,0.0,0.0,48,0.00,,---,0.00,VWS V14.01,2013-09-26 20:53:00,
2013-09-26 16:58:00,57.9,38.4,29.20,SW,225,0.9,0.9,48,0.00,,---,0.00,VWS V14.01,2013-09-26 20:58:00,
2013-09-26 17:03:00,57.7,38.2,29.20,SW,225,0.0,0.0,48,0.00,,---,0.00,VWS V14.01,2013-09-26 21:03:00,
2013-09-26 17:08:00,57.4,38.4,29.20,SW,225,0.0,0.0,49,0.00,,---,0.00,VWS V14.01,2013-09-26 21:08:00,
2013-09-26 17:13:00,57.2,38.2,29.20,SW,225,0.0,0.0,49,0.00,,---,0.00,VWS V14.01,2013-09-26 21:13:00,
2013-09-26 17:18:00,57.2,38.8,29.20,SW,225,0.0,0.0,50,0.00,,---,0.00,VWS V14.01,2013-09-26 21:18:00,
2013-09-26 17:23:00,56.8,38.9,29.20,WNW,292,0.0,0.0,51,0.00,,---,0.00,VWS V14.01,2013-09-26 21:23:00,
2013-09-26 17:28:00,56.7,39.2,29.20,WNW,292,0.0,0.0,52,0.00,,---,0.00,VWS V14.01,2013-09-26 21:28:00,
2013-09-26 17:33:00,56.5,39.1,29.20,WNW,292,0.0,1.1,52,0.00,,---,0.00,VWS V14.01,2013-09-26 21:33:00,
2013-09-26 17:38:00,56.5,39.1,29.20,SSW,202,2.0,2.5,52,0.00,,---,0.00,VWS V14.01,2013-09-26 21:38:00,
2013-09-26 17:43:00,56.3,39.4,29.20,WSW,248,1.1,1.3,53,0.00,,---,0.00,VWS V14.01,2013-09-26 21:43:00,
2013-09-26 17:48:00,56.1,38.8,29.20,NNE,22,1.6,1.6,52,0.00,,---,0.00,VWS V14.01,2013-09-26 21:48:00,
2013-09-26 17:53:00,56.1,39.2,29.20,NNE,22,0.0,0.0,53,0.00,,---,0.00,VWS V14.01,2013-09-26 21:53:00,
2013-09-26 17:58:00,55.9,39.5,29.20,NNE,22,0.0,0.0,54,0.00,,---,0.00,VWS V14.01,2013-09-26 21:58:00,
2013-09-26 18:03:00,55.8,39.4,29.20,NNE,22,0.0,0.0,54,0.00,,---,0.00,VWS V14.01,2013-09-26 22:03:00,
2013-09-26 18:08:00,55.6,39.7,29.20,NNE,22,0.0,0.0,55,0.00,,---,0.00,VWS V14.01,2013-09-26 22:08:00,
2013-09-26 18:13:00,55.4,39.5,29.20,NNE,22,0.0,0.0,55,0.00,,---,0.00,VWS V14.01,2013-09-26 22:13:00,
2013-09-26 18:18:00,55.4,40.0,29.20,NNE,22,0.0,0.0,56,0.00,,---,0.00,VWS V14.01,2013-09-26 22:18:00,
2013-09-26 18:23:00,55.2,40.3,29.20,NNE,22,0.0,0.0,57,0.00,,---,0.00,VWS V14.01,2013-09-26 22:23:00,
2013-09-26 18:28:00,54.9,40.4,29.20,NNE,22,0.0,0.0,58,0.00,,---,0.00,VWS V14.01,2013-09-26 22:28:00,
2013-09-26 18:33:00,54.9,40.4,29.20,NNE,22,0.0,0.0,58,0.00,,---,0.00,VWS V14.01,2013-09-26 22:33:00,
2013-09-26 18:38:00,54.7,40.2,29.20,NNE,22,0.0,0.0,58,0.00,,---,0.00,VWS V14.01,2013-09-26 22:38:00,
2013-09-26 18:43:00,54.7,40.7,29.20,NNE,22,0.0,0.0,59,0.00,,---,0.00,VWS V14.01,2013-09-26 22:43:00,
2013-09-26 18:48:00,54.5,40.5,29.20,NNE,22,0.0,0.0,59,0.00,,---,0.00,VWS V14.01,2013-09-26 22:48:00,
2013-09-26 18:53:00,54.5,40.5,29.20,NNE,22,0.0,0.0,59,0.00,,---,0.00,VWS V14.01,2013-09-26 22:53:00,
2013-09-26 18:58:00,54.5,40.5,29.20,NNE,22,0.0,0.0,59,0.00,,---,0.00,VWS V14.01,2013-09-26 22:58:00,
2013-09-26 19:03:00,54.5,40.5,29.20,NNE,22,0.0,0.0,59,0.00,,---,0.00,VWS V14.01,2013-09-26 23:03:00,
2013-09-26 19:08:00,54.5,40.5,29.20,NNE,22,0.0,0.0,59,0.00,,---,0.00,VWS V14.01,2013-09-26 23:08:00,
2013-09-26 19:13:00,54.5,40.5,29.20,NNE,22,0.0,0.0,59,0.00,,---,0.00,VWS V14.01,2013-09-26 23:13:00,
2013-09-26 19:18:00,54.1,40.1,29.20,NNE,22,0.0,0.0,59,0.00,,---,0.00,VWS V14.01,2013-09-26 23:18:00,
2013-09-26 19:23:00,54.1,40.6,29.20,NNE,22,0.0,0.0,60,0.00,,---,0.00,VWS V14.01,2013-09-26 23:23:00,
2013-09-26 19:28:00,54.1,40.6,29.20,NNE,22,0.0,0.0,60,0.00,,---,0.00,VWS V14.01,2013-09-26 23:28:00,
2013-09-26 19:33:00,54.1,40.6,29.20,NNE,22,0.0,0.0,60,0.00,,---,0.00,VWS V14.01,2013-09-26 23:33:00,
2013-09-26 19:38:00,54.0,40.0,29.20,NNE,22,0.0,0.0,59,0.00,,---,0.00,VWS V14.01,2013-09-26 23:38:00,
2013-09-26 19:43:00,54.0,40.4,29.20,NNE,22,0.0,0.0,60,0.00,,---,0.00,VWS V14.01,2013-09-26 23:43:00,
2013-09-26 19:48:00,54.0,40.4,29.23,NNE,22,0.0,0.0,60,0.00,,---,0.00,VWS V14.01,2013-09-26 23:48:00,
2013-09-26 19:53:00,53.8,40.7,29.23,NNE,22,0.0,0.0,61,0.00,,---,0.00,VWS V14.01,2013-09-26 23:53:00,
2013-09-26 19:58:00,54.0,40.8,29.23,NNE,22,0.0,0.0,61,0.00,,---,0.00,VWS V14.01,2013-09-26 23:58:00,
2013-09-26 20:03:00,53.8,40.7,29.23,NNE,22,0.0,0.0,61,0.00,,---,0.00,VWS V14.01,2013-09-27 00:03:00,
2013-09-26 20:10:00,53.8,41.1,29.23,NNE,22,0.0,0.0,62,0.00,,---,0.00,VWS V14.01,2013-09-27 00:10:00,
2013-09-26 20:15:00,53.8,41.1,29.23,NNE,22,0.0,0.0,62,0.00,,---,0.00,VWS V14.01,2013-09-27 00:15:00,
2013-09-26 20:20:00,53.6,40.9,29.23,NNE,22,0.0,0.0,62,0.00,,---,0.00,VWS V14.01,2013-09-27 00:20:00,
2013-09-26 20:25:00,53.6,41.3,29.23,NNE,22,0.0,0.0,63,0.00,,---,0.00,VWS V14.01,2013-09-27 00:25:00,
2013-09-26 20:30:00,53.6,41.3,29.23,NNE,22,0.0,0.0,63,0.00,,---,0.00,VWS V14.01,2013-09-27 00:30:00,
2013-09-26 20:35:00,53.6,41.7,29.23,NNE,22,0.0,0.0,64,0.00,,---,0.00,VWS V14.01,2013-09-27 00:35:00,
2013-09-26 20:40:00,53.4,42.0,29.23,NNE,22,0.0,0.0,65,0.00,,---,0.00,VWS V14.01,2013-09-27 00:40:00,
2013-09-26 20:45:00,53.6,41.7,29.23,NNE,22,0.0,0.0,64,0.00,,---,0.00,VWS V14.01,2013-09-27 00:45:00,
2013-09-26 20:50:00,53.6,41.7,29.23,NNE,22,0.0,0.0,64,0.00,,---,0.00,VWS V14.01,2013-09-27 00:50:00,
2013-09-26 20:55:00,53.6,41.7,29.23,NNE,22,0.0,0.0,64,0.00,,---,0.00,VWS V14.01,2013-09-27 00:55:00,
2013-09-26 21:00:00,53.4,42.0,29.23,NNE,22,0.0,0.0,65,0.00,,---,0.00,VWS V14.01,2013-09-27 01:00:00,
2013-09-26 21:05:00,53.4,42.0,29.23,NNE,22,0.0,0.0,65,0.00,,---,0.00,VWS V14.01,2013-09-27 01:05:00,
2013-09-26 21:10:00,53.4,42.4,29.23,NNE,22,0.0,0.0,66,0.00,,---,0.00,VWS V14.01,2013-09-27 01:10:00,
2013-09-26 21:15:00,53.4,42.4,29.23,NNE,22,0.0,0.0,66,0.00,,---,0.00,VWS V14.01,2013-09-27 01:15:00,
2013-09-26 21:20:00,53.4,42.4,29.23,NNE,22,0.0,0.0,66,0.00,,---,0.00,VWS V14.01,2013-09-27 01:20:00,
2013-09-26 21:25:00,53.4,42.4,29.23,NNE,22,0.0,0.0,66,0.00,,---,0.00,VWS V14.01,2013-09-27 01:25:00,
2013-09-26 21:30:00,53.4,42.4,29.23,NNE,22,0.0,0.0,66,0.00,,---,0.00,VWS V14.01,2013-09-27 01:30:00,
2013-09-26 21:35:00,53.2,42.2,29.23,NNE,22,0.0,0.0,66,0.00,,---,0.00,VWS V14.01,2013-09-27 01:35:00,
2013-09-26 21:40:00,53.2,42.2,29.23,SE,135,0.0,0.0,66,0.00,,---,0.00,VWS V14.01,2013-09-27 01:40:00,
2013-09-26 21:45:00,53.2,42.2,29.23,SE,135,0.0,0.0,66,0.00,,---,0.00,VWS V14.01,2013-09-27 01:45:00,
2013-09-26 21:50:00,53.2,42.6,29.23,SE,135,0.0,0.0,67,0.00,,---,0.00,VWS V14.01,2013-09-27 01:50:00,
2013-09-26 21:55:00,53.2,42.6,29.23,SE,135,0.0,0.0,67,0.00,,---,0.00,VWS V14.01,2013-09-27 01:55:00,
2013-09-26 22:00:00,53.2,42.6,29.23,SE,135,0.0,0.0,67,0.00,,---,0.00,VWS V14.01,2013-09-27 02:00:00,
2013-09-26 22:05:00,53.2,42.6,29.23,NNE,22,0.0,0.0,67,0.00,,---,0.00,VWS V14.01,2013-09-27 02:05:00,
2013-09-26 22:10:00,53.2,42.6,29.23,ENE,68,1.6,1.6,67,0.00,,---,0.00,VWS V14.01,2013-09-27 02:10:00,
2013-09-26 22:15:00,53.2,42.6,29.23,ENE,68,0.0,0.0,67,0.00,,---,0.00,VWS V14.01,2013-09-27 02:15:00,
2013-09-26 22:20:00,53.1,42.8,29.23,NE,45,0.0,0.0,68,0.00,,---,0.00,VWS V14.01,2013-09-27 02:20:00,
2013-09-26 22:25:00,53.1,42.8,29.23,NE,45,0.0,0.0,68,0.00,,---,0.00,VWS V14.01,2013-09-27 02:25:00,
2013-09-26 22:30:00,53.1,42.8,29.23,NE,45,0.0,0.0,68,0.00,,---,0.00,VWS V14.01,2013-09-27 02:30:00,
2013-09-26 22:35:00,53.1,42.8,29.23,NNE,22,0.0,0.0,68,0.00,,---,0.00,VWS V14.01,2013-09-27 02:35:00,
2013-09-26 22:40:00,53.1,42.8,29.23,NNE,22,0.0,0.0,68,0.00,,---,0.00,VWS V14.01,2013-09-27 02:40:00,
2013-09-26 22:45:00,53.1,43.2,29.23,NNE,22,0.0,0.0,69,0.00,,---,0.00,VWS V14.01,2013-09-27 02:45:00,
2013-09-26 22:50:00,53.1,43.2,29.23,NNE,22,0.0,0.0,69,0.00,,---,0.00,VWS V14.01,2013-09-27 02:50:00,
2013-09-26 22:55:00,53.1,43.2,29.23,NNE,22,0.0,0.0,69,0.00,,---,0.00,VWS V14.01,2013-09-27 02:55:00,
2013-09-26 23:00:00,53.1,42.8,29.23,NNE,22,0.0,0.0,68,0.00,,---,0.00,VWS V14.01,2013-09-27 03:00:00,
2013-09-26 23:05:00,53.1,42.8,29.23,NNE,22,0.0,0.0,68,0.00,,---,0.00,VWS V14.01,2013-09-27 03:05:00,
2013-09-26 23:10:00,52.9,42.6,29.23,NNE,22,0.0,0.0,68,0.00,,---,0.00,VWS V14.01,2013-09-27 03:10:00,
2013-09-26 23:15:00,52.9,42.6,29.23,NNE,22,0.0,0.0,68,0.00,,---,0.00,VWS V14.01,2013-09-27 03:15:00,
2013-09-26 23:20:00,52.9,42.6,29.23,NNE,22,0.0,0.0,68,0.00,,---,0.00,VWS V14.01,2013-09-27 03:20:00,
2013-09-26 23:25:00,52.9,42.6,29.23,NNE,22,0.0,0.0,68,0.00,,---,0.00,VWS V14.01,2013-09-27 03:25:00,
2013-09-26 23:30:00,52.9,42.6,29.23,NNE,22,0.0,0.0,68,0.00,,---,0.00,VWS V14.01,2013-09-27 03:30:00,
2013-09-26 23:35:00,52.9,42.6,29.23,NNE,22,0.0,0.0,68,0.00,,---,0.00,VWS V14.01,2013-09-27 03:35:00,
2013-09-26 23:40:00,52.7,42.5,29.23,NNE,22,0.0,0.0,68,0.00,,---,0.00,VWS V14.01,2013-09-27 03:40:00,
2013-09-26 23:45:00,52.7,42.5,29.23,NNE,22,0.0,0.0,68,0.00,,---,0.00,VWS V14.01,2013-09-27 03:45:00,
2013-09-26 23:50:00,52.7,42.5,29.23,NNE,22,0.0,0.0,68,0.00,,---,0.00,VWS V14.01,2013-09-27 03:50:00,
2013-09-26 23:55:00,52.7,42.5,29.23,NNE,22,0.0,0.0,68,0.00,,---,0.00,VWS V14.01,2013-09-27 03:55:00,